ITY13LT LGAV-LIML
Flight info
| Callsign | ITY13LT |
|---|---|
| Flight time | N/A |
| Altitude | 34000 |
| Route | KOR UL53 IXONI DCT IPTES UL53 GARTA DCT TIGRA DCT BAR/N0451F360 DCT OFZUD DCT URIPI DCT UTAPO DCT TUFTE DCT LOMED/N0386F180 M730 RUXOL Q920 KALIK |
| Aircraft | A320/M-SDE3FGHIRWY/LB1 |
Departure
| Time | 2026-05-05 17:18 |
|---|---|
| Airport | Athens Eleftherios Venizelos International Airport (LGAV) |
Arrival
| Time | N/A |
|---|---|
| Airport | Milano Linate Airport (LIML) |
| Time | Latitude | Longitude | Altitude | Speed | Heading |
|---|---|---|---|---|---|
| 2026-05-05 16:50 | 37.93375 | 23.94616 | 287 ft | 0 kts | 309° |
| 2026-05-05 17:08 | 37.93374 | 23.94617 | 287 ft | 0 kts | 309° |
| 2026-05-05 17:08 | 37.93372 | 23.94620 | 288 ft | 0 kts | 309° |
| 2026-05-05 17:09 | 37.93372 | 23.94621 | 288 ft | 0 kts | 309° |
| 2026-05-05 17:09 | 37.93364 | 23.94634 | 287 ft | 2 kts | 309° |
| 2026-05-05 17:09 | 37.93354 | 23.94650 | 286 ft | 2 kts | 309° |
| 2026-05-05 17:09 | 37.93344 | 23.94666 | 292 ft | 2 kts | 309° |
| 2026-05-05 17:10 | 37.93333 | 23.94682 | 289 ft | 2 kts | 309° |
| 2026-05-05 17:10 | 37.93323 | 23.94698 | 290 ft | 2 kts | 250° |
| 2026-05-05 17:10 | 37.93331 | 23.94712 | 295 ft | 0 kts | 216° |
| 2026-05-05 17:14 | 37.93330 | 23.94712 | 295 ft | 1 kts | 215° |
| 2026-05-05 17:14 | 37.93262 | 23.94651 | 286 ft | 23 kts | 217° |
| 2026-05-05 17:14 | 37.93176 | 23.94602 | 285 ft | 0 kts | 191° |
| 2026-05-05 17:15 | 37.93107 | 23.94610 | 285 ft | 21 kts | 154° |
| 2026-05-05 17:15 | 37.92991 | 23.94650 | 288 ft | 16 kts | 210° |
| 2026-05-05 17:15 | 37.92894 | 23.94559 | 283 ft | 18 kts | 217° |
| 2026-05-05 17:16 | 37.92788 | 23.94461 | 282 ft | 20 kts | 217° |
| 2026-05-05 17:16 | 37.92675 | 23.94354 | 280 ft | 21 kts | 217° |
| 2026-05-05 17:16 | 37.92547 | 23.94315 | 279 ft | 20 kts | 141° |
| 2026-05-05 17:16 | 37.92505 | 23.94466 | 279 ft | 18 kts | 59° |
| 2026-05-05 17:17 | 37.92604 | 23.94562 | 279 ft | 23 kts | 36° |
| 2026-05-05 17:17 | 37.92934 | 23.94875 | 282 ft | 93 kts | 36° |
| 2026-05-05 17:17 | 37.93607 | 23.95512 | 293 ft | 147 kts | 37° |
| 2026-05-05 17:17 | 37.94529 | 23.96386 | 485 ft | 169 kts | 37° |
| 2026-05-05 17:18 | 37.95464 | 23.97278 | 1126 ft | 169 kts | 37° |
| 2026-05-05 17:18 | 37.96404 | 23.98180 | 1774 ft | 170 kts | 36° |
| 2026-05-05 17:18 | 37.97371 | 23.99108 | 2246 ft | 183 kts | 36° |
| 2026-05-05 17:18 | 37.98447 | 24.00142 | 2506 ft | 206 kts | 36° |
| 2026-05-05 17:19 | 37.99643 | 24.01292 | 2798 ft | 227 kts | 35° |
| 2026-05-05 17:19 | 38.00948 | 24.02546 | 3315 ft | 240 kts | 35° |
| 2026-05-05 17:19 | 38.02271 | 24.03818 | 4113 ft | 243 kts | 34° |
| 2026-05-05 17:19 | 38.03619 | 24.05117 | 4954 ft | 244 kts | 33° |
| 2026-05-05 17:20 | 38.04980 | 24.06428 | 5761 ft | 247 kts | 33° |
| 2026-05-05 17:20 | 38.06544 | 24.07397 | 6299 ft | 255 kts | 9° |
| 2026-05-05 17:20 | 38.08307 | 24.07363 | 6986 ft | 257 kts | 343° |
| 2026-05-05 17:20 | 38.09876 | 24.06285 | 7706 ft | 262 kts | 317° |
| 2026-05-05 17:21 | 38.10875 | 24.04335 | 8430 ft | 271 kts | 290° |
| 2026-05-05 17:21 | 38.11059 | 24.01917 | 9149 ft | 281 kts | 271° |
| 2026-05-05 17:21 | 38.10978 | 23.99424 | 9899 ft | 285 kts | 271° |
| 2026-05-05 17:22 | 38.10790 | 23.94109 | 10503 ft | 324 kts | 271° |
| 2026-05-05 17:22 | 38.10691 | 23.91150 | 10650 ft | 346 kts | 271° |
| 2026-05-05 17:22 | 38.10589 | 23.88043 | 11049 ft | 358 kts | 270° |
| 2026-05-05 17:22 | 38.10483 | 23.84861 | 11651 ft | 363 kts | 270° |
| 2026-05-05 17:23 | 38.10373 | 23.81644 | 12277 ft | 367 kts | 270° |
| 2026-05-05 17:23 | 38.10261 | 23.78386 | 12875 ft | 372 kts | 270° |